Time;durP1;ratioP1;P1;durP2;ratioP2;P2;SDS_P1;SDS_P2;PMS_P1;PMS_P2;Temp;Humidity;BMP_temperature;BMP_pressure;BME280_temperature;BME280_humidity;BME280_pressure;Samples;Min_cycle;Max_cycle;Signal;HPM_P1;HPM_P2
2023/12/24 00:37:08;;;;;;;0.00;0.00;;;;;;;4.80;59.45;98925.59;5346953;26;20056;-93
2023/12/24 00:39:34;;;;;;;0.00;0.00;;;;;;;4.77;59.44;98920.50;5343541;26;20069;-93
2023/12/24 00:41:59;;;;;;;0.00;0.00;;;;;;;4.81;59.45;98935.00;5306948;26;20134;-93
2023/12/24 00:44:32;;;;;;;0.00;0.00;;;;;;;4.83;59.44;98925.50;5306629;26;20047;-93
2023/12/24 00:47:00;;;;;;;1.10;0.40;;;;;;;4.67;59.44;98937.03;5307717;26;20070;-92
2023/12/24 00:49:28;;;;;;;0.00;0.00;;;;;;;4.79;59.45;98927.31;5307322;26;20061;-94
2023/12/24 00:52:00;;;;;;;0.00;0.00;;;;;;;4.74;59.44;98930.88;5307717;26;20080;-93
2023/12/24 00:55:23;;;;;;;;;;;;;;;;;;;;;
2023/12/24 03:24:11;;;;;;;;;;;;;;;;;;;;;
2023/12/24 03:27:26;;;;;;;;;;;;;;;;;;;;;
2023/12/24 03:30:31;;;;;;;;;;;;;;;;;;;;;
2023/12/24 03:37:17;;;;;;;;;;;;;;;;;;;;;
2023/12/24 03:39:47;;;;;;;0.00;0.00;;;;;;;5.33;59.48;98960.47;5341141;26;35642;-92
2023/12/24 03:42:17;;;;;;;;;;;;;;;5.24;59.46;98976.19;5326067;26;20121;-92
2023/12/24 03:44:43;;;;;;;0.52;0.52;;;;;;;5.11;59.46;98987.66;5325908;26;19971;-91
2023/12/24 03:47:08;;;;;;;0.00;0.00;;;;;;;5.21;59.46;98982.25;5325223;26;20134;-92
2023/12/24 03:50:16;;;;;;;0.00;0.00;;;;;;;5.32;59.48;98983.72;5306396;26;20113;-92
2023/12/24 03:52:42;;;;;;;0.03;0.03;;;;;;;5.26;59.47;98986.47;5329002;26;20748;-91
2023/12/24 03:55:08;;;;;;;0.00;0.00;;;;;;;5.53;59.49;98994.41;5307555;26;20139;-92
2023/12/24 03:57:33;;;;;;;0.00;0.00;;;;;;;5.35;59.47;98986.25;5306960;26;20052;-90
2023/12/24 03:59:59;;;;;;;0.00;0.00;;;;;;;5.47;59.48;98985.97;5306890;26;20100;-92
2023/12/24 04:02:34;;;;;;;1.77;0.43;;;;;;;5.34;59.47;98987.13;5306856;26;20123;-92
2023/12/24 04:05:10;;;;;;;0.10;0.10;;;;;;;5.31;59.47;98984.63;5343337;26;20063;-92
2023/12/24 04:07:35;;;;;;;0.00;0.00;;;;;;;5.31;59.48;98988.03;5307639;26;20529;-91
2023/12/24 04:10:04;;;;;;;0.00;0.00;;;;;;;5.52;59.48;98979.81;5306561;26;20123;-91
2023/12/24 04:12:29;;;;;;;0.00;0.00;;;;;;;5.35;59.48;98981.09;5307282;26;20555;-90
2023/12/24 04:14:55;;;;;;;0.00;0.00;;;;;;;5.39;59.48;98975.81;5306218;26;20095;-91
2023/12/24 04:17:20;;;;;;;0.00;0.00;;;;;;;5.57;59.49;98973.69;5324407;26;20075;-92
2023/12/24 04:19:46;;;;;;;0.00;0.00;;;;;;;5.42;59.47;98967.97;5324281;26;20148;-91
2023/12/24 04:22:11;;;;;;;0.10;0.10;;;;;;;5.56;59.49;98970.25;5306693;26;20105;-93
2023/12/24 04:24:39;;;;;;;0.00;0.00;;;;;;;5.36;59.47;98975.03;5305662;26;20107;-95
2023/12/24 05:10:35;;;;;;;;;;;;;;;;;;;;;
2023/12/24 05:13:51;;;;;;;;;;;;;;;;;;;;;
2023/12/24 05:29:22;;;;;;;;;;;;;;;;;;;;;
2023/12/24 05:31:48;;;;;;;0.05;0.05;;;;;;;5.09;59.46;98969.63;5337928;26;35999;-92
2023/12/24 05:34:14;;;;;;;0.10;0.10;;;;;;;5.01;59.45;98970.69;5321799;26;20180;-92
2023/12/24 05:36:39;;;;;;;0.10;0.10;;;;;;;5.21;59.46;98971.09;5303794;26;20048;-92
2023/12/24 05:39:07;;;;;;;0.43;0.43;;;;;;;5.15;59.46;98977.22;5303804;27;20087;-91
2023/12/24 05:41:32;;;;;;;0.00;0.00;;;;;;;5.13;59.46;98972.97;5303772;26;20076;-92
2023/12/24 05:43:58;;;;;;;0.00;0.00;;;;;;;4.81;59.45;98968.53;5302618;27;20095;-91
2023/12/24 05:46:24;;;;;;;0.00;0.00;;;;;;;4.99;59.45;98967.28;5305927;26;20063;-88
2023/12/24 05:48:50;;;;;;;0.00;0.00;;;;;;;4.79;59.45;98971.16;5305883;26;20064;-89
2023/12/24 05:51:15;;;;;;;0.00;0.00;;;;;;;4.92;59.45;98976.88;5305742;26;20139;-90
2023/12/24 05:53:41;;;;;;;0.00;0.00;;;;;;;5.07;59.46;98962.81;5305557;26;20070;-88
2023/12/24 05:56:06;;;;;;;0.00;0.00;;;;;;;5.07;59.45;98973.97;5286908;26;20052;-88
2023/12/24 05:58:32;;;;;;;0.10;0.10;;;;;;;4.98;59.45;98979.34;5304545;26;20104;-89
2023/12/24 06:01:25;;;;;;;0.73;0.47;;;;;;;5.17;59.47;98972.87;5305800;26;20123;-90
2023/12/24 06:03:50;;;;;;;0.00;0.00;;;;;;;5.24;59.46;98976.19;5305563;26;20064;-90
2023/12/24 06:06:16;;;;;;;1.27;0.35;;;;;;;5.18;59.47;98984.03;5287522;26;20507;-90
2023/12/24 06:08:41;;;;;;;0.00;0.00;;;;;;;5.34;59.47;98980.22;5305122;26;20575;-89
2023/12/24 06:11:15;;;;;;;0.00;0.00;;;;;;;5.16;59.47;98991.81;5287340;26;20160;-90
2023/12/24 06:13:55;;;;;;;1.55;1.20;;;;;;;5.22;59.46;98986.53;5287755;26;20056;-88
2023/12/24 06:16:20;;;;;;;0.55;0.30;;;;;;;5.33;59.48;98980.28;5305585;26;20448;-90
2023/12/24 06:18:46;;;;;;;2.33;1.90;;;;;;;5.22;59.46;98988.28;5287398;26;20060;-89
2023/12/24 06:21:11;;;;;;;0.00;0.00;;;;;;;5.40;59.48;98992.97;5305530;26;20095;-90
2023/12/24 06:23:39;;;;;;;0.03;0.03;;;;;;;5.52;59.48;98984.97;5287863;26;20052;-91
2023/12/24 06:26:05;;;;;;;0.10;0.10;;;;;;;5.42;59.48;98996.38;5307420;26;20053;-92
2023/12/24 06:29:20;;;;;;;3.08;0.88;;;;;;;5.76;59.49;99003.34;5307586;26;20101;-93
2023/12/24 06:31:45;;;;;;;1.12;0.35;;;;;;;5.84;59.51;99001.41;5325071;26;20139;-92
2023/12/24 06:34:56;;;;;;;0.60;0.60;;;;;;;5.64;59.50;99001.87;5303278;26;20099;-92
2023/12/24 06:37:21;;;;;;;0.00;0.00;;;;;;;5.46;59.49;99003.19;5292965;26;20084;-92
2023/12/24 06:39:47;;;;;;;0.00;0.00;;;;;;;5.76;59.49;99000.75;5303478;27;20088;-93
2023/12/24 06:42:12;;;;;;;0.00;0.00;;;;;;;5.56;59.49;99006.38;5322082;26;20123;-91
2023/12/24 06:44:41;;;;;;;0.00;0.00;;;;;;;5.70;59.50;98998.34;5325007;26;20120;-90
2023/12/24 06:47:06;;;;;;;3.03;0.88;;;;;;;5.59;59.49;99008.91;5285254;27;20053;-92
2023/12/24 06:49:32;;;;;;;0.20;0.20;;;;;;;5.81;59.50;99020.41;5287694;26;20157;-93
2023/12/24 06:51:57;;;;;;;0.00;0.00;;;;;;;5.78;59.50;99017.91;5302387;27;20081;-93
2023/12/24 06:54:52;;;;;;;0.43;0.30;;;;;;;5.83;59.51;99021.22;5286677;26;20358;-93
2023/12/24 06:57:17;;;;;;;0.00;0.00;;;;;;;5.91;59.51;99026.22;5325599;26;20024;-93
2023/12/24 06:59:42;;;;;;;0.25;0.25;;;;;;;6.13;59.52;99019.63;5321619;27;20079;-93
2023/12/24 07:02:08;;;;;;;0.00;0.00;;;;;;;5.92;59.51;99027.09;5285049;27;20492;-94
2023/12/24 07:04:34;;;;;;;0.15;0.15;;;;;;;5.76;59.49;99021.41;5276132;27;20060;-93
2023/12/24 07:06:59;;;;;;;1.62;1.17;;;;;;;5.72;59.49;99012.91;5307387;26;20092;-93
2023/12/24 07:09:25;;;;;;;2.85;2.60;;;;;;;5.98;59.51;99007.12;5306392;26;20673;-92
2023/12/24 07:11:51;;;;;;;9.93;8.88;;;;;;;5.89;59.50;99017.63;5302706;27;20061;-94
2023/12/24 07:14:16;;;;;;;13.05;5.90;;;;;;;6.18;59.52;99018.69;5306991;26;20071;-94
2023/12/24 07:16:42;;;;;;;13.07;7.50;;;;;;;6.06;59.52;99030.16;5320983;27;20080;-93
2023/12/24 07:19:08;;;;;;;5.72;3.17;;;;;;;6.13;59.52;99027.38;5302980;27;20449;-94
2023/12/24 07:24:39;;;;;;;0.10;0.10;;;;;;;6.08;59.52;99026.66;5309956;26;20025;-95
2023/12/24 07:27:15;;;;;;;0.35;0.35;;;;;;;5.91;59.51;99038.28;5309159;27;20026;-96
2023/12/24 07:29:43;;;;;;;0.15;0.13;;;;;;;6.17;59.52;99037.66;5320939;27;20715;-96
2023/12/24 07:32:09;;;;;;;0.32;0.32;;;;;;;6.14;59.52;99035.97;5284201;27;20115;-96
2023/12/24 07:34:36;;;;;;;0.98;0.80;;;;;;;6.04;59.51;99039.69;5283020;27;20057;-95
2023/12/24 07:37:06;;;;;;;0.28;0.28;;;;;;;6.17;59.52;99046.25;5301182;27;20088;-96
2023/12/24 07:39:43;;;;;;;0.00;0.00;;;;;;;6.12;59.51;99048.94;5302852;27;20065;-96
2023/12/24 07:42:19;;;;;;;0.00;0.00;;;;;;;6.26;59.52;99047.75;5265409;27;20068;-96
2023/12/24 07:45:27;;;;;;;;;;;;;;;;;;;;;
2023/12/24 07:55:48;;;;;;;0.00;0.00;;;;;;;6.71;59.55;99061.19;5280894;27;20758;-94
2023/12/24 07:58:37;;;;;;;2.20;0.75;;;;;;;6.95;59.57;99064.84;5252056;27;20453;-94
2023/12/24 08:01:30;;;;;;;;;;;;;;;;;;;;;
2023/12/24 08:04:04;;;;;;;0.00;0.00;;;;;;;7.02;59.57;99069.78;5282605;27;36328;-93
2023/12/24 08:06:35;;;;;;;0.00;0.00;;;;;;;7.25;59.59;99076.03;5286444;27;20075;-95
2023/12/24 08:09:20;;;;;;;0.10;0.10;;;;;;;7.28;59.58;99076.78;5282612;27;20052;-95
2023/12/24 08:11:48;;;;;;;7.03;3.08;;;;;;;7.53;59.59;99079.50;5293867;27;20727;-96
2023/12/24 08:14:20;;;;;;;2.70;2.50;;;;;;;7.43;59.59;99078.09;5293643;27;20771;-96
2023/12/24 08:16:58;;;;;;;3.47;2.00;;;;;;;7.51;59.60;99086.47;5295352;27;20040;-96
2023/12/24 08:19:57;;;;;;;0.85;0.85;;;;;;;7.50;59.60;99078.75;5332730;27;20040;-96
2023/12/24 08:23:17;;;;;;;;;;;;;;;;;;;;;
2023/12/24 08:25:59;;;;;;;0.95;0.95;;;;;;;7.74;59.61;99088.34;5318826;27;35603;-96
2023/12/24 08:28:44;;;;;;;0.10;0.10;;;;;;;7.82;59.61;99101.09;5316869;27;20060;-96
2023/12/24 08:31:11;;;;;;;0.80;0.25;;;;;;;7.80;59.61;99106.28;5292748;27;20272;-96
2023/12/24 08:33:43;;;;;;;0.00;0.00;;;;;;;7.75;59.60;99103.00;5337495;27;20059;-96
2023/12/24 08:36:20;;;;;;;0.28;0.22;;;;;;;7.78;59.61;99102.06;5316618;27;20043;-96
2023/12/24 08:38:59;;;;;;;0.08;0.08;;;;;;;8.14;59.62;99107.84;5333207;27;20028;-96
2023/12/24 08:41:26;;;;;;;1.15;0.80;;;;;;;7.91;59.61;99101.63;5332215;27;20060;-96
2023/12/24 08:44:00;;;;;;;0.00;0.00;;;;;;;7.91;59.61;99112.00;5313215;27;20060;-96
2023/12/24 08:46:27;;;;;;;0.20;0.20;;;;;;;8.12;59.63;99118.25;5311943;27;20069;-96
2023/12/24 08:48:56;;;;;;;0.10;0.10;;;;;;;8.25;59.63;99119.53;5292793;27;20067;-95
2023/12/24 08:51:27;;;;;;;0.00;0.00;;;;;;;8.35;59.63;99120.12;5311892;27;20053;-96
2023/12/24 08:53:55;;;;;;;0.00;0.00;;;;;;;8.09;59.62;99131.31;5329390;27;20095;-96
2023/12/24 08:56:24;;;;;;;0.00;0.00;;;;;;;8.32;59.64;99125.41;5312629;27;20627;-96
2023/12/24 08:59:57;;;;;;;0.00;0.00;;;;;;;8.41;59.65;99126.84;5312227;27;20064;-96
2023/12/24 09:02:23;;;;;;;0.57;0.57;;;;;;;8.65;59.65;99128.62;5256791;27;20077;-96
2023/12/24 09:04:50;;;;;;;0.00;0.00;;;;;;;8.48;59.64;99133.53;5248958;27;20053;-96
2023/12/24 09:07:21;;;;;;;0.00;0.00;;;;;;;8.47;59.65;99134.44;5295146;27;20065;-96
2023/12/24 09:09:48;;;;;;;0.00;0.00;;;;;;;8.47;59.65;99137.03;5309925;27;20039;-96
2023/12/24 09:12:15;;;;;;;0.65;0.43;;;;;;;8.70;59.66;99128.47;5311924;27;20065;-96
2023/12/24 09:15:03;;;;;;;0.20;0.20;;;;;;;8.78;59.67;99121.28;5312315;27;20029;-96
2023/12/24 09:17:34;;;;;;;0.00;0.00;;;;;;;8.85;59.67;99121.00;5336685;27;20095;-96
2023/12/24 09:20:47;;;;;;;0.00;0.00;;;;;;;8.74;59.66;99119.66;5338568;27;20048;-96
2023/12/24 09:23:31;;;;;;;0.00;0.00;;;;;;;8.97;59.68;99119.72;5336780;27;20024;-95
2023/12/24 09:26:19;;;;;;;0.00;0.00;;;;;;;8.94;59.67;99114.63;5339475;27;20058;-96
2023/12/24 09:29:20;;;;;;;0.00;0.00;;;;;;;9.20;59.69;99122.34;5318691;26;20053;-96
2023/12/24 09:32:12;;;;;;;0.45;0.30;;;;;;;9.17;59.68;99119.00;5358939;26;20073;-96
2023/12/24 09:37:44;;;;;;;0.10;0.10;;;;;;;9.34;59.70;99119.25;5384563;26;20039;-96
2023/12/24 09:43:54;;;;;;;0.00;0.00;;;;;;;9.57;59.71;99120.97;5384391;26;20046;-96
2023/12/24 09:46:45;;;;;;;0.75;0.75;;;;;;;9.66;59.71;99122.38;5363387;26;20024;-96
2023/12/24 09:50:07;;;;;;;0.20;0.20;;;;;;;9.88;59.73;99128.44;5374385;26;20025;-96
2023/12/24 09:52:39;;;;;;;0.17;0.17;;;;;;;9.87;59.72;99128.50;5348579;26;20043;-96
2023/12/24 09:55:07;;;;;;;0.00;0.00;;;;;;;9.91;59.73;99130.06;5382575;26;20024;-96
2023/12/24 09:58:12;;;;;;;0.15;0.15;;;;;;;9.83;59.72;99130.38;5363096;26;20034;-96
2023/12/24 10:00:43;;;;;;;0.60;0.30;;;;;;;9.84;59.72;99127.72;5380097;26;20068;-96
2023/12/24 10:03:13;;;;;;;0.00;0.00;;;;;;;9.83;59.72;99128.62;5381634;26;20032;-96
2023/12/24 10:06:02;;;;;;;0.20;0.17;;;;;;;9.82;59.72;99118.28;5361851;26;20446;-96
2023/12/24 10:08:28;;;;;;;0.57;0.57;;;;;;;9.96;59.73;99118.59;5356618;26;20020;-96
2023/12/24 10:10:54;;;;;;;0.00;0.00;;;;;;;9.88;59.73;99125.84;5337947;26;20094;-96
2023/12/24 10:13:20;;;;;;;0.00;0.00;;;;;;;9.83;59.72;99120.81;5353956;26;20032;-96
2023/12/24 10:16:03;;;;;;;0.47;0.32;;;;;;;9.88;59.72;99125.84;5334940;26;20060;-96
2023/12/24 10:18:29;;;;;;;0.52;0.52;;;;;;;9.99;59.73;99109.84;5353249;26;20736;-96
2023/12/24 10:21:05;;;;;;;3.28;0.90;;;;;;;9.95;59.73;99105.66;5351133;26;20044;-96
2023/12/24 10:23:32;;;;;;;2.62;1.55;;;;;;;10.19;59.75;99109.03;5350656;26;20078;-96
2023/12/24 10:26:11;;;;;;;0.77;0.77;;;;;;;10.28;59.74;99111.28;5333725;26;20088;-96
2023/12/24 10:28:56;;;;;;;1.87;0.87;;;;;;;10.38;59.75;99100.41;5350660;26;20859;-95
2023/12/24 10:31:23;;;;;;;6.70;1.12;;;;;;;10.56;59.76;99101.41;5347589;26;20716;-95
2023/12/24 10:33:49;;;;;;;0.43;0.43;;;;;;;10.56;59.76;99101.41;5331241;26;20116;-95
2023/12/24 10:36:30;;;;;;;1.45;0.43;;;;;;;10.54;59.76;99110.19;5330555;26;20068;-96
2023/12/24 10:38:57;;;;;;;0.03;0.03;;;;;;;10.43;59.75;99103.69;5369286;26;20436;-96
2023/12/24 10:41:22;;;;;;;1.42;0.60;;;;;;;10.43;59.75;99102.84;5366917;26;20126;-94
2023/12/24 10:43:47;;;;;;;1.42;0.73;;;;;;;10.50;59.76;99108.66;5329681;26;20113;-93
2023/12/24 10:46:13;;;;;;;0.00;0.00;;;;;;;10.34;59.75;99113.62;5330390;26;20069;-95
2023/12/24 10:48:38;;;;;;;0.10;0.10;;;;;;;10.26;59.75;99107.91;5350417;26;20086;-95
2023/12/24 10:51:04;;;;;;;0.00;0.00;;;;;;;10.28;59.74;99114.72;5330029;26;20096;-95
2023/12/24 10:53:29;;;;;;;0.43;0.43;;;;;;;10.01;59.73;99113.22;5329962;26;20426;-94
2023/12/24 10:56:01;;;;;;;0.00;0.00;;;;;;;9.79;59.71;99115.81;5329562;26;22335;-94
2023/12/24 10:58:41;;;;;;;0.20;0.20;;;;;;;9.64;59.71;99106.84;5330121;26;20109;-95
2023/12/24 11:01:09;;;;;;;0.03;0.03;;;;;;;9.71;59.71;99103.13;5371070;26;20063;-95
2023/12/24 11:03:44;;;;;;;0.00;0.00;;;;;;;9.71;59.71;99100.53;5345469;26;20057;-96
2023/12/24 11:06:10;;;;;;;0.35;0.20;;;;;;;9.60;59.71;99091.44;5349237;26;20067;-94
2023/12/24 11:08:35;;;;;;;0.20;0.10;;;;;;;9.59;59.71;99084.53;5332273;26;20388;-96
2023/12/24 11:11:06;;;;;;;0.60;0.47;;;;;;;9.54;59.70;99076.94;5332998;26;20456;-94
2023/12/24 11:13:32;;;;;;;0.52;0.52;;;;;;;9.61;59.71;99073.19;5333632;26;20090;-96
2023/12/24 11:16:00;;;;;;;0.00;0.00;;;;;;;9.67;59.71;99082.47;5370128;26;20067;-96
2023/12/24 11:18:46;;;;;;;0.00;0.00;;;;;;;9.68;59.71;99079.81;5333350;26;20804;-95
2023/12/24 11:21:15;;;;;;;0.00;0.00;;;;;;;9.70;59.71;99069.38;5333704;26;20123;-95
2023/12/24 11:23:41;;;;;;;0.00;0.00;;;;;;;9.58;59.71;99069.84;5334371;26;20060;-93
2023/12/24 11:26:31;;;;;;;3.60;1.55;;;;;;;9.70;59.71;99064.16;5332987;26;20148;-95
2023/12/24 11:29:02;;;;;;;2.75;0.62;;;;;;;9.82;59.72;99058.50;5351788;26;20016;-96
2023/12/24 11:31:27;;;;;;;0.00;0.00;;;;;;;9.84;59.72;99057.53;5333894;26;20062;-93
2023/12/24 11:33:56;;;;;;;0.20;0.20;;;;;;;10.00;59.73;99062.13;5333307;26;20060;-94
2023/12/24 11:36:24;;;;;;;0.00;0.00;;;;;;;10.07;59.73;99067.00;5329957;26;20098;-95
2023/12/24 11:38:56;;;;;;;0.00;0.00;;;;;;;10.15;59.73;99054.53;5329460;26;20070;-96
2023/12/24 11:41:23;;;;;;;0.10;0.10;;;;;;;10.39;59.75;99046.63;5329280;26;20063;-94
2023/12/24 11:43:55;;;;;;;0.25;0.25;;;;;;;10.60;59.76;99053.53;5330210;26;20082;-96
2023/12/24 11:46:22;;;;;;;0.00;0.00;;;;;;;10.59;59.76;99051.00;5349109;26;20071;-95
2023/12/24 11:48:47;;;;;;;0.00;0.00;;;;;;;10.79;59.77;99048.37;5330146;26;20070;-96
2023/12/24 11:51:13;;;;;;;0.00;0.00;;;;;;;10.80;59.78;99055.25;5330224;26;20067;-94
2023/12/24 11:53:40;;;;;;;0.00;0.00;;;;;;;10.97;59.78;99055.37;5328091;26;20079;-96
2023/12/24 11:56:13;;;;;;;0.37;0.35;;;;;;;11.10;59.79;99050.44;5347367;26;20455;-95
2023/12/24 11:58:39;;;;;;;0.00;0.00;;;;;;;11.33;59.81;99049.41;5329004;26;20079;-94
2023/12/24 12:01:05;;;;;;;0.00;0.00;;;;;;;11.27;59.80;99040.09;5328489;26;20146;-96
2023/12/24 12:03:31;;;;;;;0.40;0.40;;;;;;;11.40;59.81;99042.16;5327510;26;20068;-94
2023/12/24 12:05:56;;;;;;;0.00;0.00;;;;;;;11.55;59.81;99037.06;5328760;26;20076;-94
2023/12/24 12:08:22;;;;;;;3.03;1.35;;;;;;;11.53;59.82;99044.09;5328081;26;20314;-95
2023/12/24 12:10:47;;;;;;;0.00;0.00;;;;;;;11.61;59.82;99034.19;5329461;26;20071;-95
2023/12/24 12:13:13;;;;;;;0.03;0.03;;;;;;;11.65;59.82;99019.22;5328242;26;20076;-94
2023/12/24 12:15:38;;;;;;;0.10;0.10;;;;;;;11.53;59.82;99010.22;5328305;26;21136;-95
2023/12/24 12:18:06;;;;;;;0.62;0.62;;;;;;;11.50;59.81;99005.16;5346906;26;20071;-95
2023/12/24 12:20:32;;;;;;;0.15;0.15;;;;;;;11.56;59.81;99001.41;5365715;26;20435;-95
2023/12/24 12:23:06;;;;;;;0.15;0.15;;;;;;;11.63;59.82;99014.09;5365401;26;20075;-93
2023/12/24 12:25:31;;;;;;;0.00;0.00;;;;;;;11.52;59.81;99016.34;5329004;26;20486;-96
2023/12/24 12:27:57;;;;;;;0.65;0.65;;;;;;;11.55;59.81;99012.75;5347298;26;20075;-95
2023/12/24 12:30:22;;;;;;;0.00;0.00;;;;;;;11.66;59.82;99020.91;5347213;26;20087;-95
2023/12/24 12:32:48;;;;;;;0.10;0.10;;;;;;;11.53;59.82;99025.84;5329185;26;20126;-93
2023/12/24 12:35:15;;;;;;;0.73;0.73;;;;;;;11.37;59.81;99036.19;5328578;26;20068;-96
2023/12/24 12:37:41;;;;;;;0.00;0.00;;;;;;;11.31;59.80;99044.25;5329175;26;20123;-95
2023/12/24 12:40:07;;;;;;;3.70;0.45;;;;;;;11.27;59.80;99049.69;5328914;26;20047;-96
2023/12/24 12:42:33;;;;;;;0.00;0.00;;;;;;;11.19;59.79;99047.44;5329961;26;20113;-95
2023/12/24 12:44:58;;;;;;;0.00;0.00;;;;;;;11.09;59.79;99040.94;5347635;26;20099;-96
2023/12/24 12:47:49;;;;;;;0.52;0.52;;;;;;;10.85;59.77;99044.66;5368047;26;20171;-95
2023/12/24 12:50:14;;;;;;;1.08;0.47;;;;;;;10.80;59.77;99046.59;5364063;26;20072;-91
2023/12/24 12:52:40;;;;;;;0.05;0.05;;;;;;;10.76;59.77;99030.28;5327855;26;20115;-93
2023/12/24 12:55:06;;;;;;;0.00;0.00;;;;;;;10.52;59.75;99029.59;5327901;26;20061;-92
2023/12/24 12:57:35;;;;;;;0.10;0.10;;;;;;;10.60;59.76;99024.91;5327717;26;20052;-94
2023/12/24 13:00:03;;;;;;;0.00;0.00;;;;;;;10.59;59.76;99018.00;5328999;26;20028;-93
2023/12/24 13:02:31;;;;;;;0.52;0.52;;;;;;;10.90;59.78;99014.06;5364539;26;20127;-92
2023/12/24 13:04:58;;;;;;;0.00;0.00;;;;;;;10.68;59.76;99025.44;5327332;26;20076;-94
2023/12/24 13:07:52;;;;;;;2.85;0.37;;;;;;;10.69;59.76;99021.91;5327823;26;20059;-95
2023/12/24 13:10:44;;;;;;;0.05;0.05;;;;;;;10.86;59.78;99028.09;5365020;26;20074;-94
2023/12/24 13:13:20;;;;;;;0.00;0.00;;;;;;;10.83;59.78;99029.09;5329896;26;20088;-93
2023/12/24 13:15:46;;;;;;;0.13;0.10;;;;;;;10.83;59.77;99033.47;5364170;26;20078;-93
2023/12/24 13:18:21;;;;;;;0.10;0.08;;;;;;;10.69;59.76;99042.72;5363449;26;20096;-91
2023/12/24 13:20:53;;;;;;;0.20;0.17;;;;;;;10.60;59.76;99040.50;5364528;26;20055;-92
2023/12/24 13:23:24;;;;;;;0.00;0.00;;;;;;;10.68;59.77;99042.81;5328053;26;20060;-94
2023/12/24 13:25:54;;;;;;;0.10;0.10;;;;;;;10.53;59.75;99051.25;5328587;26;20072;-95
2023/12/24 13:28:22;;;;;;;0.00;0.00;;;;;;;10.50;59.76;99048.78;5328828;26;20051;-92
2023/12/24 13:30:47;;;;;;;0.00;0.00;;;;;;;10.64;59.77;99049.88;5328226;26;20113;-94
2023/12/24 13:33:14;;;;;;;0.52;0.45;;;;;;;10.84;59.77;99048.16;5327411;26;20083;-94
2023/12/24 13:35:42;;;;;;;0.77;0.77;;;;;;;10.90;59.78;99038.34;5346172;26;20060;-94
2023/12/24 13:38:10;;;;;;;2.92;2.12;;;;;;;10.99;59.79;99050.94;5328727;26;20056;-95
2023/12/24 13:40:38;;;;;;;0.75;0.75;;;;;;;11.06;59.78;99047.13;5329414;26;20047;-93
2023/12/24 13:43:05;;;;;;;1.23;0.43;;;;;;;11.01;59.79;99045.66;5347844;26;20068;-95
2023/12/24 13:45:31;;;;;;;2.72;0.90;;;;;;;11.17;59.80;99051.03;5328676;26;20079;-95
2023/12/24 13:48:00;;;;;;;0.20;0.20;;;;;;;11.15;59.79;99043.28;5337282;26;245183;-93
2023/12/24 13:50:27;;;;;;;0.00;0.00;;;;;;;11.15;59.79;99040.69;5313864;26;20469;-94
2023/12/24 13:53:03;;;;;;;1.77;0.68;;;;;;;10.90;59.78;99047.91;5365861;26;20084;-93
2023/12/24 13:55:31;;;;;;;1.37;1.27;;;;;;;10.88;59.78;99042.75;5348323;26;20067;-94
2023/12/24 13:58:20;;;;;;;0.47;0.47;;;;;;;10.90;59.78;99040.94;5329350;26;20090;-94
2023/12/24 14:00:48;;;;;;;0.00;0.00;;;;;;;10.74;59.77;99045.97;5366820;26;20062;-94
2023/12/24 14:03:26;;;;;;;;;;;;;;;;;;;;;
2023/12/24 14:06:14;;;;;;;;;;;;;;;;;;;;;
2023/12/24 14:08:42;;;;;;;0.13;0.13;;;;;;;10.81;59.77;99041.34;5349094;26;36391;-92
2023/12/24 14:11:18;;;;;;;0.00;0.00;;;;;;;10.66;59.76;99052.44;5366225;26;20073;-92
2023/12/24 14:13:45;;;;;;;0.40;0.37;;;;;;;10.67;59.77;99054.97;5331817;26;20068;-93
2023/12/24 14:16:29;;;;;;;;;;;;;;;;;;;;;
2023/12/24 14:18:58;;;;;;;0.28;0.28;;;;;;;10.81;59.78;99062.16;5348500;26;35715;-95
2023/12/24 14:21:33;;;;;;;1.35;0.90;;;;;;;10.69;59.77;99057.50;5328898;26;20043;-94
2023/12/24 14:24:06;;;;;;;0.00;0.00;;;;;;;10.77;59.78;99066.66;5330828;26;20079;-94
2023/12/24 14:26:50;;;;;;;0.15;0.15;;;;;;;10.68;59.76;99067.06;5329458;26;20127;-94
2023/12/24 14:29:16;;;;;;;0.45;0.40;;;;;;;10.47;59.76;99062.78;5330540;26;20111;-94
2023/12/24 14:31:41;;;;;;;0.62;0.62;;;;;;;10.44;59.75;99066.38;5328282;26;20076;-94
2023/12/24 14:34:10;;;;;;;0.30;0.30;;;;;;;10.50;59.76;99059.19;5330397;26;20064;-93
2023/12/24 14:36:35;;;;;;;0.43;0.37;;;;;;;10.55;59.76;99052.03;5332222;26;20436;-94
2023/12/24 14:39:03;;;;;;;0.00;0.00;;;;;;;10.48;59.76;99059.28;5332339;26;20099;-93
2023/12/24 14:41:34;;;;;;;0.55;0.55;;;;;;;10.42;59.76;99070.78;5332611;26;20051;-93
2023/12/24 14:44:01;;;;;;;0.15;0.15;;;;;;;10.27;59.75;99061.03;5333561;26;20078;-93
2023/12/24 14:46:27;;;;;;;2.28;0.90;;;;;;;10.09;59.73;99061.75;5332564;26;20078;-92
2023/12/24 14:48:55;;;;;;;1.02;0.93;;;;;;;10.12;59.74;99070.25;5369002;26;20052;-92
2023/12/24 14:51:21;;;;;;;0.93;0.93;;;;;;;10.12;59.74;99080.66;5332742;26;20420;-93
2023/12/24 14:53:50;;;;;;;0.20;0.20;;;;;;;10.08;59.73;99081.69;5332137;26;20063;-93
2023/12/24 14:56:15;;;;;;;0.05;0.05;;;;;;;10.07;59.73;99087.81;5332738;26;20082;-92
2023/12/24 14:58:41;;;;;;;0.25;0.25;;;;;;;10.09;59.74;99091.19;5332003;26;20664;-90
2023/12/24 15:01:09;;;;;;;0.03;0.03;;;;;;;9.99;59.73;99084.69;5331661;26;20077;-92
2023/12/24 15:03:35;;;;;;;0.65;0.65;;;;;;;9.87;59.72;99094.69;5332005;26;20076;-91
2023/12/24 15:06:02;;;;;;;3.17;1.42;;;;;;;10.15;59.74;99093.53;5332368;26;20075;-93
2023/12/24 15:08:28;;;;;;;1.27;0.43;;;;;;;9.79;59.71;99095.84;5350893;26;20059;-92
2023/12/24 15:15:13;;;;;;;;;;;;;;;;;;;;;
2023/12/24 17:16:53;;;;;;;0.00;0.00;;;;;;;8.75;59.67;99129.16;5353209;26;20049;-96
2023/12/24 17:19:18;;;;;;;0.45;0.45;;;;;;;8.69;59.66;99131.97;5309793;26;20411;-96
2023/12/24 17:21:54;;;;;;;0.52;0.52;;;;;;;8.71;59.66;99118.03;5295590;26;20071;-96
2023/12/24 17:24:21;;;;;;;0.52;0.52;;;;;;;8.85;59.67;99128.78;5320841;26;20017;-96
2023/12/24 17:27:24;;;;;;;3.45;1.85;;;;;;;9.08;59.68;99124.53;5330153;26;20111;-95
2023/12/24 17:29:50;;;;;;;1.55;0.55;;;;;;;8.97;59.67;99131.84;5293079;27;20057;-96
2023/12/24 17:32:19;;;;;;;1.50;0.88;;;;;;;8.91;59.68;99131.16;5289413;27;20057;-96
2023/12/24 17:43:03;;;;;;;0.90;0.90;;;;;;;9.08;59.68;99125.37;5338357;26;20092;-96
2023/12/24 18:11:41;;;;;;;2.40;1.65;;;;;;;9.15;59.68;99107.81;5351893;26;20828;-96
2023/12/24 18:14:55;;;;;;;0.22;0.17;;;;;;;9.02;59.68;99097.06;5334406;26;20036;-96
2023/12/24 18:17:59;;;;;;;0.00;0.00;;;;;;;9.15;59.69;99098.28;5358653;26;20039;-96
2023/12/24 18:20:54;;;;;;;0.00;0.00;;;;;;;9.02;59.68;99096.22;5363037;26;20017;-96
2023/12/24 18:23:53;;;;;;;0.85;0.55;;;;;;;9.08;59.68;99101.19;5360607;26;20089;-96
2023/12/24 18:26:26;;;;;;;0.90;0.90;;;;;;;9.22;59.69;99098.91;5338687;26;20082;-96
2023/12/24 18:29:15;;;;;;;0.60;0.60;;;;;;;9.25;59.68;99101.41;5337208;27;20021;-96
2023/12/24 18:32:12;;;;;;;0.40;0.22;;;;;;;9.25;59.69;99110.94;5338849;27;20051;-96
2023/12/24 18:35:02;;;;;;;0.32;0.32;;;;;;;9.42;59.71;99106.81;5338760;27;20037;-96
2023/12/24 18:38:01;;;;;;;2.00;1.60;;;;;;;9.70;59.71;99108.34;5320346;26;20036;-95
2023/12/24 18:40:36;;;;;;;0.05;0.05;;;;;;;9.57;59.71;99110.59;5339163;26;20033;-96
2023/12/24 18:43:33;;;;;;;0.00;0.00;;;;;;;9.63;59.71;99099.94;5338474;27;20036;-96
2023/12/24 18:46:15;;;;;;;0.00;0.00;;;;;;;9.81;59.73;99093.19;5338788;27;20044;-95
2023/12/24 18:49:06;;;;;;;0.10;0.10;;;;;;;10.01;59.73;99098.47;5316681;27;20067;-96
2023/12/24 18:51:33;;;;;;;0.00;0.00;;;;;;;10.05;59.73;99096.56;5317783;27;20037;-96
2023/12/24 18:54:26;;;;;;;0.00;0.00;;;;;;;10.08;59.73;99092.09;5318801;27;20044;-96
2023/12/24 18:57:09;;;;;;;0.30;0.30;;;;;;;10.03;59.74;99091.44;5338966;26;20036;-95
2023/12/24 18:59:46;;;;;;;0.00;0.00;;;;;;;10.08;59.73;99099.06;5337668;26;20035;-96
2023/12/24 19:02:20;;;;;;;0.03;0.03;;;;;;;10.22;59.74;99098.53;5335982;26;20036;-96
2023/12/24 19:05:08;;;;;;;;;;;;;;;;;;;;;
2023/12/24 19:07:43;;;;;;;0.85;0.70;;;;;;;10.23;59.74;99097.62;5346906;26;35725;-95
2023/12/24 19:10:29;;;;;;;0.50;0.50;;;;;;;10.42;59.76;99102.00;5331397;27;20102;-95
2023/12/24 19:12:58;;;;;;;0.00;0.00;;;;;;;10.41;59.76;99091.66;5374765;26;20137;-96
2023/12/24 19:15:25;;;;;;;0.00;0.00;;;;;;;10.48;59.76;99100.91;5357232;26;20701;-96
2023/12/24 19:17:52;;;;;;;0.00;0.00;;;;;;;10.36;59.75;99104.00;5354232;26;20054;-96
2023/12/24 19:20:20;;;;;;;0.00;0.00;;;;;;;10.54;59.76;99094.59;5318545;26;20063;-96
2023/12/24 19:22:45;;;;;;;0.00;0.00;;;;;;;10.51;59.76;99092.13;5318507;26;20028;-96
2023/12/24 19:25:12;;;;;;;0.30;0.30;;;;;;;10.50;59.76;99098.22;5319337;26;20089;-96
2023/12/24 19:27:41;;;;;;;0.00;0.00;;;;;;;10.55;59.76;99104.09;5338991;26;20032;-96